createdAt,value
2023-02-23T00:00:28.727Z,1.10
2023-02-23T00:02:59.268Z,1.10
2023-02-23T00:05:27.242Z,1.20
2023-02-23T00:07:54.694Z,1.10
2023-02-23T00:10:25.519Z,1.20
2023-02-23T00:12:52.485Z,1.10
2023-02-23T00:15:19.544Z,1.20
2023-02-23T00:17:47.929Z,1.20
2023-02-23T00:20:16.725Z,1.20
2023-02-23T00:22:43.721Z,1.10
2023-02-23T00:25:15.226Z,1.10
2023-02-23T00:27:46.111Z,1.20
2023-02-23T00:30:14.735Z,1.10
2023-02-23T00:32:41.882Z,1.20
2023-02-23T00:35:17.356Z,1.10
2023-02-23T00:37:46.249Z,1.20
2023-02-23T00:40:16.640Z,1.20
2023-02-23T00:42:48.139Z,1.20
2023-02-23T00:45:15.604Z,1.20
2023-02-23T00:47:44.659Z,1.20
2023-02-23T00:50:16.282Z,1.20
2023-02-23T00:52:44.114Z,1.20
2023-02-23T00:55:15.306Z,1.20
2023-02-23T00:57:42.164Z,1.20
2023-02-23T01:00:18.802Z,1.20
2023-02-23T01:02:47.510Z,1.20
2023-02-23T01:05:14.689Z,1.20
2023-02-23T01:07:41.539Z,1.10
2023-02-23T01:10:21.248Z,1.20
2023-02-23T01:12:50.482Z,1.10
2023-02-23T01:15:18.640Z,1.20
2023-02-23T01:17:45.605Z,1.10
2023-02-23T01:20:19.270Z,1.20
2023-02-23T01:22:49.444Z,1.20
2023-02-23T01:25:17.460Z,1.20
2023-02-23T01:27:44.841Z,1.20
2023-02-23T01:30:15.055Z,1.20
2023-02-23T01:32:43.745Z,1.20
2023-02-23T01:35:12.682Z,1.10
2023-02-23T01:37:41.766Z,1.20
2023-02-23T01:40:16.447Z,1.20
2023-02-23T01:42:46.297Z,1.20
2023-02-23T01:45:23.745Z,1.20
2023-02-23T01:47:53.200Z,1.20
2023-02-23T01:50:22.821Z,1.10
2023-02-23T01:52:52.118Z,1.10
2023-02-23T01:55:24.422Z,1.10
2023-02-23T01:57:56.360Z,1.10
2023-02-23T02:00:26.573Z,1.10
2023-02-23T02:02:53.853Z,1.10
2023-02-23T02:05:21.159Z,1.20
2023-02-23T02:07:58.701Z,1.20
2023-02-23T02:10:39.924Z,1.20
2023-02-23T02:13:15.085Z,1.20
2023-02-23T02:16:18.147Z,1.20
2023-02-23T02:18:59.790Z,1.20
2023-02-23T02:21:56.787Z,1.20
2023-02-23T02:24:48.120Z,1.20
2023-02-23T02:27:43.589Z,1.10
2023-02-23T02:31:02.056Z,1.20
2023-02-23T02:34:14.055Z,1.10
2023-02-23T02:36:59.842Z,1.10
2023-02-23T02:40:15.202Z,1.20
2023-02-23T02:43:08.643Z,1.20
2023-02-23T02:45:45.150Z,1.20
2023-02-23T02:48:18.320Z,1.20
2023-02-23T02:51:00.870Z,1.30
2023-02-23T02:53:47.055Z,1.30
2023-02-23T02:56:19.910Z,1.20
2023-02-23T02:58:50.321Z,1.20
2023-02-23T03:01:38.147Z,1.20
2023-02-23T03:04:42.887Z,1.10
2023-02-23T03:07:42.872Z,1.10
2023-02-23T03:10:51.575Z,1.10
2023-02-23T03:14:00.330Z,1.10
2023-02-23T03:16:59.160Z,1.10
2023-02-23T03:20:04.793Z,1.00
2023-02-23T03:23:00.690Z,1.00
2023-02-23T03:26:00.458Z,1.00
2023-02-23T03:28:52.099Z,1.00
2023-02-23T03:32:02.707Z,1.00
2023-02-23T03:34:59.349Z,1.10
2023-02-23T03:38:04.446Z,1.10
2023-02-23T03:40:57.644Z,1.00
2023-02-23T03:43:55.546Z,1.10
2023-02-23T03:46:43.231Z,1.10
2023-02-23T03:49:30.105Z,1.10
2023-02-23T03:52:24.523Z,1.10
2023-02-23T03:55:24.656Z,1.10
2023-02-23T03:58:13.125Z,1.10
2023-02-23T04:01:03.952Z,1.10
2023-02-23T04:03:53.113Z,1.10
2023-02-23T04:06:42.001Z,1.10
2023-02-23T04:09:27.721Z,1.00
2023-02-23T04:12:25.831Z,1.10
2023-02-23T04:15:12.792Z,1.20
2023-02-23T04:17:40.289Z,1.10
2023-02-23T04:20:08.935Z,1.10
2023-02-23T04:22:35.967Z,1.10
2023-02-23T04:25:03.087Z,1.10
2023-02-23T04:27:30.126Z,1.20
2023-02-23T04:29:57.011Z,1.20
2023-02-23T04:32:24.180Z,1.30
2023-02-23T04:34:51.180Z,1.20
2023-02-23T04:37:18.100Z,1.20
2023-02-23T04:39:49.658Z,1.20
2023-02-23T04:42:17.567Z,1.00
2023-02-23T04:44:45.220Z,0.90
2023-02-23T04:47:14.118Z,0.90
2023-02-23T04:49:41.057Z,0.80
2023-02-23T04:52:07.827Z,0.80
2023-02-23T04:54:38.894Z,0.80
2023-02-23T04:57:06.808Z,0.70
2023-02-23T04:59:33.892Z,0.70
2023-02-23T05:02:00.740Z,0.70
2023-02-23T05:04:27.752Z,0.60
2023-02-23T05:06:54.695Z,0.60
2023-02-23T05:09:21.617Z,0.60
2023-02-23T05:11:48.579Z,0.60
2023-02-23T05:14:15.516Z,0.60
2023-02-23T05:16:42.383Z,0.50
2023-02-23T05:19:09.392Z,0.50
2023-02-23T05:21:36.262Z,0.40
2023-02-23T05:24:03.220Z,0.40
2023-02-23T05:26:30.320Z,0.40
2023-02-23T05:28:57.277Z,0.40
2023-02-23T05:31:24.997Z,0.40
2023-02-23T05:33:52.638Z,0.30
2023-02-23T05:36:20.891Z,0.30
2023-02-23T05:38:49.107Z,0.30
2023-02-23T05:41:19.449Z,0.20
2023-02-23T05:43:47.398Z,0.20
2023-02-23T05:46:20.731Z,0.20
2023-02-23T05:48:47.853Z,0.20
2023-02-23T05:51:16.250Z,0.10
2023-02-23T05:53:44.410Z,0.00
2023-02-23T05:56:14.494Z,0.00
2023-02-23T05:58:41.449Z,0.00
2023-02-23T06:01:08.356Z,0.00
2023-02-23T06:03:35.679Z,-0.10
2023-02-23T06:06:02.629Z,-0.10
2023-02-23T06:08:29.469Z,0.00
2023-02-23T06:10:56.322Z,0.00
2023-02-23T06:13:23.380Z,0.00
2023-02-23T06:15:50.360Z,-0.10
2023-02-23T06:18:17.732Z,0.00
2023-02-23T06:20:46.270Z,0.00
2023-02-23T06:23:14.050Z,0.00
2023-02-23T06:25:41.540Z,0.00
2023-02-23T06:28:08.919Z,-0.10
2023-02-23T06:30:36.975Z,-0.20
2023-02-23T06:33:04.103Z,-0.20
2023-02-23T06:35:32.463Z,-0.10
2023-02-23T06:38:00.297Z,-0.20
2023-02-23T06:40:28.765Z,-0.20
2023-02-23T06:42:55.800Z,-0.20
2023-02-23T06:45:22.951Z,-0.30
2023-02-23T06:47:49.944Z,-0.30
2023-02-23T06:50:17.255Z,-0.30
2023-02-23T06:52:44.115Z,-0.40
2023-02-23T06:55:10.991Z,-0.40
2023-02-23T06:57:38.394Z,-0.50
2023-02-23T07:00:05.915Z,-0.50
2023-02-23T07:02:32.794Z,-0.50
2023-02-23T07:04:59.756Z,-0.50
2023-02-23T07:07:26.624Z,-0.50
2023-02-23T07:09:53.491Z,-0.50
2023-02-23T07:12:21.149Z,-0.50
2023-02-23T07:14:48.011Z,-0.50
2023-02-23T07:17:14.839Z,-0.40
2023-02-23T07:19:41.902Z,-0.40
2023-02-23T07:22:08.894Z,-0.50
2023-02-23T07:24:35.889Z,-0.40
2023-02-23T07:27:02.849Z,-0.50
2023-02-23T07:29:29.803Z,-0.40
2023-02-23T07:31:56.790Z,-0.40
2023-02-23T07:34:23.954Z,-0.40
2023-02-23T07:36:51.059Z,-0.40
2023-02-23T07:39:17.997Z,-0.30
2023-02-23T07:41:44.881Z,-0.30
2023-02-23T07:44:19.136Z,-0.20
2023-02-23T07:46:46.521Z,-0.10
2023-02-23T07:49:13.967Z,0.00
2023-02-23T07:51:41.587Z,0.00
2023-02-23T07:54:08.388Z,0.10
2023-02-23T07:56:35.610Z,0.30
2023-02-23T07:59:03.767Z,0.40
2023-02-23T08:01:31.046Z,0.40
2023-02-23T08:03:58.024Z,0.50
2023-02-23T08:06:25.010Z,0.60
2023-02-23T08:08:52.068Z,0.70
2023-02-23T08:11:19.516Z,0.90
2023-02-23T08:13:46.505Z,1.00
2023-02-23T08:16:13.548Z,0.90
2023-02-23T08:18:40.559Z,0.90
2023-02-23T08:21:07.777Z,0.90
2023-02-23T08:23:35.575Z,0.80
2023-02-23T08:26:03.089Z,0.70
2023-02-23T08:28:31.363Z,0.70
2023-02-23T08:30:59.409Z,0.80
2023-02-23T08:33:26.796Z,0.80
2023-02-23T08:35:54.067Z,0.80
2023-02-23T08:38:21.042Z,0.80
2023-02-23T08:40:48.058Z,0.80
2023-02-23T08:43:16.292Z,0.80
2023-02-23T08:45:43.231Z,0.70
2023-02-23T08:48:10.308Z,0.70
2023-02-23T08:50:37.321Z,0.70
2023-02-23T08:53:05.390Z,0.80
2023-02-23T08:55:35.641Z,0.80
2023-02-23T08:58:02.437Z,1.00
2023-02-23T09:00:29.400Z,1.10
2023-02-23T09:02:56.242Z,1.20
2023-02-23T09:05:23.250Z,1.30
2023-02-23T09:07:50.942Z,1.40
2023-02-23T09:10:20.193Z,1.50
2023-02-23T09:12:47.140Z,1.60
2023-02-23T09:15:14.014Z,1.60
2023-02-23T09:17:44.890Z,1.60
2023-02-23T09:20:13.677Z,1.60
2023-02-23T09:22:50.475Z,1.70
2023-02-23T09:25:24.667Z,1.70
2023-02-23T09:27:53.699Z,1.70
2023-02-23T09:30:21.497Z,1.80
2023-02-23T09:32:49.528Z,1.80
2023-02-23T09:35:18.009Z,1.90
2023-02-23T09:37:50.361Z,2.00
2023-02-23T09:40:22.004Z,2.10
2023-02-23T09:43:12.059Z,2.20
2023-02-23T09:45:42.891Z,2.40
2023-02-23T09:48:09.905Z,2.40
2023-02-23T09:50:40.088Z,2.40
2023-02-23T09:53:15.662Z,2.40
2023-02-23T09:55:44.600Z,2.40
2023-02-23T09:58:38.558Z,2.50
2023-02-23T10:01:29.606Z,2.60
2023-02-23T10:04:23.140Z,2.50
2023-02-23T10:07:12.961Z,2.30
2023-02-23T10:10:12.939Z,2.10
2023-02-23T10:12:56.271Z,2.10
2023-02-23T10:15:58.414Z,1.90
2023-02-23T10:18:47.306Z,1.70
2023-02-23T10:21:35.590Z,1.70
2023-02-23T10:24:10.076Z,1.80
2023-02-23T10:27:00.603Z,1.80
2023-02-23T10:29:32.904Z,1.80
2023-02-23T10:32:07.722Z,1.80
2023-02-23T10:34:36.886Z,1.80
2023-02-23T10:37:06.735Z,1.90
2023-02-23T10:39:34.606Z,1.80
2023-02-23T10:42:07.879Z,1.90
2023-02-23T10:44:35.058Z,1.80
2023-02-23T10:47:03.213Z,1.80
2023-02-23T10:49:43.462Z,1.80
2023-02-23T10:52:20.583Z,1.80
2023-02-23T10:54:52.078Z,1.70
2023-02-23T10:57:32.455Z,1.70
2023-02-23T11:00:20.406Z,1.90
2023-02-23T11:02:48.229Z,1.90
2023-02-23T11:05:29.338Z,2.00
2023-02-23T11:08:26.163Z,2.00
2023-02-23T11:11:09.715Z,2.10
2023-02-23T11:13:43.079Z,2.20
2023-02-23T11:16:22.068Z,2.30
2023-02-23T11:18:51.521Z,2.30
2023-02-23T11:21:38.461Z,2.30
2023-02-23T11:24:27.217Z,2.40
2023-02-23T11:27:00.371Z,2.40
2023-02-23T11:29:36.631Z,2.50
2023-02-23T11:32:31.590Z,2.60
2023-02-23T11:35:19.404Z,2.80
2023-02-23T11:37:46.958Z,2.80
2023-02-23T11:40:32.092Z,2.90
2023-02-23T11:43:14.698Z,2.90
2023-02-23T11:45:50.464Z,2.90
2023-02-23T11:48:31.340Z,3.00
2023-02-23T11:50:58.833Z,3.00
2023-02-23T11:53:35.051Z,3.00
2023-02-23T11:56:11.165Z,3.00
2023-02-23T11:58:51.345Z,2.90
2023-02-23T12:01:34.618Z,3.00
2023-02-23T12:04:02.137Z,3.00
2023-02-23T12:06:31.856Z,3.00
2023-02-23T12:09:25.207Z,3.10
2023-02-23T12:12:01.376Z,3.20
2023-02-23T12:14:51.463Z,3.20
2023-02-23T12:17:27.773Z,3.10
2023-02-23T12:20:03.157Z,3.00
2023-02-23T12:22:39.507Z,2.90
2023-02-23T12:25:37.250Z,3.00
2023-02-23T12:28:18.534Z,3.10
2023-02-23T12:30:55.253Z,3.20
2023-02-23T12:33:30.174Z,3.10
2023-02-23T12:36:09.135Z,3.20
2023-02-23T12:38:44.851Z,3.30
2023-02-23T12:41:13.823Z,3.30
2023-02-23T12:43:51.370Z,3.40
2023-02-23T12:46:35.510Z,3.40
2023-02-23T12:49:35.388Z,3.50
2023-02-23T12:52:25.872Z,3.70
2023-02-23T12:54:53.678Z,3.70
2023-02-23T12:57:23.879Z,3.70
2023-02-23T13:00:10.076Z,3.70
2023-02-23T13:02:48.578Z,3.60
2023-02-23T13:05:28.608Z,3.60
2023-02-23T13:08:33.706Z,3.60
2023-02-23T13:11:44.809Z,3.60
2023-02-23T13:14:36.432Z,3.70
2023-02-23T13:17:25.883Z,3.60
2023-02-23T13:20:01.629Z,3.60
2023-02-23T13:22:46.226Z,3.70
2023-02-23T13:25:45.974Z,3.70
2023-02-23T13:28:43.362Z,3.80
2023-02-23T13:31:25.465Z,3.80
2023-02-23T13:33:55.858Z,4.00
2023-02-23T13:36:23.594Z,4.00
2023-02-23T13:39:32.119Z,4.00
2023-02-23T13:42:23.150Z,4.00
2023-02-23T13:45:02.060Z,3.90
2023-02-23T13:50:56.922Z,3.90
2023-02-23T13:53:57.910Z,3.90
2023-02-23T13:56:28.175Z,3.90
2023-02-23T13:58:58.955Z,4.00
2023-02-23T14:01:36.543Z,3.90
2023-02-23T14:04:12.789Z,4.00
2023-02-23T14:06:51.128Z,3.80
2023-02-23T14:09:23.803Z,3.80
2023-02-23T14:12:05.116Z,3.90
2023-02-23T14:14:32.333Z,3.90
2023-02-23T14:17:12.067Z,4.00
2023-02-23T14:19:45.625Z,4.00
2023-02-23T14:22:22.210Z,4.00
2023-02-23T14:25:26.759Z,4.00
2023-02-23T14:28:02.090Z,4.10
2023-02-23T14:30:43.630Z,4.10
2023-02-23T14:33:36.207Z,4.20
2023-02-23T14:36:25.895Z,4.30
2023-02-23T14:39:00.408Z,4.30
2023-02-23T14:41:50.215Z,4.30
2023-02-23T14:44:31.572Z,4.20
2023-02-23T14:47:13.003Z,4.20
2023-02-23T14:49:47.511Z,4.10
2023-02-23T14:52:21.337Z,4.10
2023-02-23T14:54:48.825Z,4.00
2023-02-23T14:57:22.027Z,4.10
2023-02-23T14:59:59.468Z,4.10
2023-02-23T15:02:29.664Z,4.10
2023-02-23T15:04:57.402Z,4.10
2023-02-23T15:07:35.552Z,4.10
2023-02-23T15:10:12.022Z,4.10
2023-02-23T15:12:39.235Z,4.10
2023-02-23T15:15:23.451Z,4.00
2023-02-23T15:17:53.428Z,4.00
2023-02-23T15:20:32.843Z,4.00
2023-02-23T15:23:03.612Z,4.00
2023-02-23T15:25:40.976Z,3.90
2023-02-23T15:28:26.736Z,3.90
2023-02-23T15:31:01.115Z,3.80
2023-02-23T15:33:31.014Z,3.80
2023-02-23T15:36:14.720Z,3.70
2023-02-23T15:38:46.173Z,3.60
2023-02-23T15:41:34.848Z,3.50
2023-02-23T15:44:20.722Z,3.40
2023-02-23T15:47:00.698Z,3.40
2023-02-23T15:49:31.884Z,3.30
2023-02-23T15:52:14.999Z,3.20
2023-02-23T15:55:00.124Z,3.10
2023-02-23T15:57:33.433Z,3.00
2023-02-23T16:00:10.602Z,2.80
2023-02-23T16:02:40.001Z,2.70
2023-02-23T16:05:22.262Z,2.60
2023-02-23T16:08:01.270Z,2.50
2023-02-23T16:10:29.797Z,2.40
2023-02-23T16:12:56.834Z,2.30
2023-02-23T16:15:35.508Z,2.20
2023-02-23T16:18:04.744Z,2.20
2023-02-23T16:20:56.078Z,2.00
2023-02-23T16:23:40.350Z,2.00
2023-02-23T16:26:17.415Z,1.80
2023-02-23T16:28:46.416Z,1.60
2023-02-23T16:31:22.420Z,1.50
2023-02-23T16:33:58.731Z,1.50
2023-02-23T16:36:38.806Z,1.40
2023-02-23T16:39:11.513Z,1.30
2023-02-23T16:41:38.752Z,1.40
2023-02-23T16:44:07.810Z,1.30
2023-02-23T16:47:01.553Z,1.20
2023-02-23T16:49:32.615Z,1.10
2023-02-23T16:52:00.327Z,1.00
2023-02-23T16:54:27.695Z,0.80
2023-02-23T16:56:55.611Z,0.80
2023-02-23T16:59:23.457Z,0.70
2023-02-23T17:01:50.840Z,0.70
2023-02-23T17:04:19.738Z,0.60
2023-02-23T17:06:55.708Z,0.50
2023-02-23T17:09:24.303Z,0.50
2023-02-23T17:11:51.230Z,0.40
2023-02-23T17:14:25.249Z,0.40
2023-02-23T17:16:52.480Z,0.40
2023-02-23T17:19:19.369Z,0.40
2023-02-23T17:21:46.690Z,0.30
2023-02-23T17:24:13.604Z,0.30
2023-02-23T17:26:42.161Z,0.30
2023-02-23T17:29:09.322Z,0.30
2023-02-23T17:31:38.067Z,0.40
2023-02-23T17:34:05.797Z,0.30
2023-02-23T17:36:32.823Z,0.30
2023-02-23T17:38:59.857Z,0.20
2023-02-23T17:41:27.289Z,0.20
2023-02-23T17:43:54.594Z,0.20
2023-02-23T17:46:23.911Z,0.20
2023-02-23T17:48:51.048Z,0.20
2023-02-23T17:51:19.513Z,0.30
2023-02-23T17:53:47.140Z,0.20
2023-02-23T17:56:14.117Z,0.20
2023-02-23T17:58:41.788Z,0.30
2023-02-23T18:01:09.007Z,0.30
2023-02-23T18:03:37.586Z,0.20
2023-02-23T18:06:10.241Z,0.20
2023-02-23T18:08:38.648Z,0.20
2023-02-23T18:11:06.068Z,0.20
2023-02-23T18:13:33.835Z,0.20
2023-02-23T18:16:04.431Z,0.10
2023-02-23T18:18:31.658Z,0.10
2023-02-23T18:21:00.606Z,0.20
2023-02-23T18:23:32.566Z,0.10
2023-02-23T18:26:15.024Z,0.10
2023-02-23T18:28:44.486Z,0.00
2023-02-23T18:31:20.942Z,0.00
2023-02-23T18:33:54.917Z,-0.10
2023-02-23T18:36:28.732Z,-0.10
2023-02-23T18:38:57.652Z,-0.20
2023-02-23T18:41:30.778Z,-0.20
2023-02-23T18:44:04.397Z,-0.20
2023-02-23T18:46:32.150Z,-0.20
2023-02-23T18:48:59.239Z,-0.20
2023-02-23T18:51:26.292Z,-0.20
2023-02-23T18:53:54.212Z,-0.10
2023-02-23T18:56:25.219Z,0.00
2023-02-23T18:58:57.933Z,0.00
2023-02-23T19:01:28.156Z,-0.10
2023-02-23T19:03:58.345Z,-0.10
2023-02-23T19:06:25.662Z,-0.10
2023-02-23T19:08:55.492Z,-0.10
2023-02-23T19:11:24.970Z,-0.10
2023-02-23T19:13:53.897Z,-0.20
2023-02-23T19:16:21.971Z,-0.20
2023-02-23T19:18:48.954Z,-0.30
2023-02-23T19:21:17.314Z,-0.30
2023-02-23T19:23:45.207Z,-0.30
2023-02-23T19:26:13.007Z,-0.30
2023-02-23T19:28:40.034Z,-0.30
2023-02-23T19:31:10.208Z,-0.40
2023-02-23T19:33:40.166Z,-0.40
2023-02-23T19:36:12.651Z,-0.40
2023-02-23T19:38:40.445Z,-0.40
2023-02-23T19:41:08.697Z,-0.30
2023-02-23T19:43:35.742Z,-0.40
2023-02-23T19:46:07.456Z,-0.40
2023-02-23T19:48:35.228Z,-0.40
2023-02-23T19:51:02.930Z,-0.40
2023-02-23T19:53:30.554Z,-0.40
2023-02-23T19:56:05.985Z,-0.30
2023-02-23T19:58:34.216Z,-0.30
2023-02-23T20:01:08.861Z,-0.40
2023-02-23T20:03:42.202Z,-0.40
2023-02-23T20:06:14.050Z,-0.40
2023-02-23T20:08:42.449Z,-0.40
2023-02-23T20:11:09.653Z,-0.40
2023-02-23T20:13:39.094Z,-0.40
2023-02-23T20:16:09.292Z,-0.40
2023-02-23T20:18:38.604Z,-0.40
2023-02-23T20:21:23.568Z,-0.40
2023-02-23T20:23:51.396Z,-0.40
2023-02-23T20:26:22.175Z,-0.40
2023-02-23T20:28:50.526Z,-0.40
2023-02-23T20:31:29.501Z,-0.40
2023-02-23T20:33:58.840Z,-0.40
2023-02-23T20:36:26.441Z,-0.40
2023-02-23T20:38:53.774Z,-0.40
2023-02-23T20:41:22.659Z,-0.30
2023-02-23T20:43:51.612Z,-0.40
2023-02-23T20:46:19.844Z,-0.40
2023-02-23T20:48:49.337Z,-0.40
2023-02-23T20:51:19.422Z,-0.30
2023-02-23T20:53:48.208Z,-0.30
2023-02-23T20:56:18.144Z,-0.30
2023-02-23T20:58:46.125Z,-0.30
2023-02-23T21:01:18.183Z,-0.30
2023-02-23T21:03:45.396Z,-0.30
2023-02-23T21:06:12.512Z,-0.30
2023-02-23T21:08:42.270Z,-0.30
2023-02-23T21:11:09.199Z,-0.30
2023-02-23T21:13:37.019Z,-0.30
2023-02-23T21:16:04.060Z,-0.30
2023-02-23T21:18:31.970Z,-0.20
2023-02-23T21:21:09.797Z,-0.20
2023-02-23T21:23:38.627Z,-0.20
2023-02-23T21:26:09.842Z,-0.20
2023-02-23T21:28:37.774Z,-0.20
2023-02-23T21:31:05.254Z,-0.20
2023-02-23T21:33:32.334Z,-0.20
2023-02-23T21:35:59.791Z,-0.20
2023-02-23T21:38:26.786Z,-0.20
2023-02-23T21:40:53.851Z,-0.30
2023-02-23T21:43:23.277Z,-0.30
2023-02-23T21:45:50.371Z,-0.30
2023-02-23T21:48:17.518Z,-0.40
2023-02-23T21:50:44.727Z,-0.40
2023-02-23T21:53:12.787Z,-0.40
2023-02-23T21:55:40.118Z,-0.40
2023-02-23T21:58:07.618Z,-0.30
2023-02-23T22:00:39.380Z,-0.40
2023-02-23T22:03:08.225Z,-0.40
2023-02-23T22:05:35.634Z,-0.40
2023-02-23T22:08:02.656Z,-0.40
2023-02-23T22:10:31.244Z,-0.40
2023-02-23T22:13:00.184Z,-0.40
2023-02-23T22:15:27.751Z,-0.30
2023-02-23T22:17:55.775Z,-0.30
2023-02-23T22:20:22.913Z,-0.30
2023-02-23T22:22:52.765Z,-0.30
2023-02-23T22:25:20.739Z,-0.30
2023-02-23T22:27:47.993Z,-0.30
2023-02-23T22:30:15.568Z,-0.30
2023-02-23T22:32:43.241Z,-0.40
2023-02-23T22:35:11.380Z,-0.30
2023-02-23T22:37:39.316Z,-0.30
2023-02-23T22:40:13.377Z,-0.30
2023-02-23T22:42:43.455Z,-0.20
2023-02-23T22:45:11.462Z,-0.20
2023-02-23T22:47:38.987Z,-0.30
2023-02-23T22:50:07.076Z,-0.30
2023-02-23T22:52:34.763Z,-0.20
2023-02-23T22:55:03.425Z,-0.20
2023-02-23T22:57:30.610Z,-0.10
2023-02-23T23:00:00.984Z,-0.20
2023-02-23T23:02:32.326Z,-0.10
2023-02-23T23:05:01.962Z,-0.10
2023-02-23T23:07:31.121Z,-0.10
2023-02-23T23:09:58.869Z,-0.10
2023-02-23T23:12:28.201Z,-0.10
2023-02-23T23:14:56.660Z,-0.10
2023-02-23T23:17:23.763Z,-0.10
2023-02-23T23:19:50.827Z,-0.10
2023-02-23T23:22:17.865Z,-0.10
2023-02-23T23:24:49.117Z,-0.20
2023-02-23T23:27:16.148Z,-0.10
2023-02-23T23:29:46.681Z,-0.10
2023-02-23T23:32:18.914Z,-0.10
2023-02-23T23:34:48.252Z,-0.10
2023-02-23T23:37:17.805Z,-0.10
2023-02-23T23:39:44.913Z,-0.10
2023-02-23T23:42:12.965Z,-0.10
2023-02-23T23:44:39.827Z,-0.10
2023-02-23T23:47:06.980Z,-0.10
2023-02-23T23:49:38.012Z,0.00
2023-02-23T23:52:06.198Z,0.00
2023-02-23T23:54:39.476Z,-0.10
2023-02-23T23:57:07.345Z,-0.10
2023-02-23T23:59:35.698Z,-0.10
